Containerships 6 — DABH — position and weather

sailwx.info

Track history (hours):
 
Tides and Currents Weather Stations Pressure Air Temp Water Temp Dewpoint Dewpoint Depression Visibility Wind Speed Wind Dir Waves Ship Positions

Containerships 6

Last reported at 2017-Mar-25 16:18 UTC. Time now 2017-Mar-26 18:53 UTC.
Position N 59°20' E 022°10'.

Length 155 m; beam 21.8 m; draft 8.9 m.

Type: Ship (hazmat cat A). MMSI: 211315096.

Date/timePositionNaut miles runAvg speedWind from/ knotsBaromVisibWave heightAir tempDewpointWater temp
2017-Mar-25 16:18N 59°20' E 022°10'3517.8
2017-Mar-25 14:19N 59°36' E 023°13'1518.2
2017-Mar-25 13:30N 59°41' E 023°41'80 2.4
2017-Mar-24 03:31N 60°00' E 026°15'1616.6
2017-Mar-24 02:33N 60°01' E 026°47'1815.9
2017-Mar-24 01:26N 60°05' E 027°21'1516.3
2017-Mar-24 00:30N 60°12' E 027°49'1816.7
2017-Mar-23 23:25N 60°05' E 028°23'1416.5
2017-Mar-23 22:33N 60°03' E 028°51'1312.4
2017-Mar-23 21:33N 60°02' E 029°16'1 0.1
2017-Mar-22 19:32N 60°01' E 029°19'1616.4
2017-Mar-22 18:33N 60°02' E 028°47'1716.6
2017-Mar-22 17:33N 60°07' E 028°15'1716.5
2017-Mar-22 16:33N 60°10' E 027°42'1716.4
2017-Mar-22 15:33N 60°01' E 027°14'1514.7
2017-Mar-22 14:33N 59°60' E 026°45'39613.0
2017-Mar-21 08:08N 56°04' E 016°45'1118.5
2017-Mar-21 07:33N 55°58' E 016°28'1818.4
2017-Mar-21 06:33N 55°49' E 015°60'1818.4
2017-Mar-21 05:34N 55°40' E 015°32'1918.9
2017-Mar-21 04:34N 55°31' E 015°02'1918.6
2017-Mar-21 03:33N 55°20' E 014°35'1717.3
2017-Mar-21 02:33N 55°10' E 014°11'1918.6
2017-Mar-21 01:33N 55°11' E 013°39'2018.7
2017-Mar-21 00:29N 55°13' E 013°04'1617.2
2017-Mar-20 23:34N 55°19' E 012°38'1514.8
2017-Mar-20 22:33N 55°34' E 012°42'1111.4
2017-Mar-20 21:33N 55°45' E 012°41'1716.7
2017-Mar-20 20:33N 56°02' E 012°39'1716.9
2017-Mar-20 19:33N 56°13' E 012°16'7117.5
2017-Mar-20 15:28N 57°19' E 011°28'1617.1
2017-Mar-20 14:33N 57°32' E 011°13'1817.9
2017-Mar-20 13:33N 57°45' E 010°49'2017.9
2017-Mar-20 12:25N 57°43' E 010°10'15218.6
2017-Mar-20 04:16N 55°53' E 007°01'1819.0
2017-Mar-20 03:19N 55°37' E 006°44'14819.0
2017-Mar-19 19:32N 53°27' E 004°43'1919.8
2017-Mar-19 18:33N 53°09' E 004°29'1919.5
2017-Mar-19 17:33N 52°52' E 004°15'2018.9
2017-Mar-19 16:31N 52°35' E 003°59'1818.2
2017-Mar-19 15:33N 52°17' E 003°52'1818.0
2017-Mar-19 14:33N 52°01' E 004°01'1313.4
2017-Mar-19 13:33N 51°54' E 004°20'3 3.3
2017-Mar-19 12:34N 51°53' E 004°25'0 0.0
2017-Mar-19 10:33N 51°53' E 004°25'0 0.0
2017-Mar-19 09:34N 51°53' E 004°25'0 0.0
2017-Mar-19 08:33N 51°53' E 004°25'0 0.0
2017-Mar-19 07:33N 51°53' E 004°25'0 0.0
2017-Mar-19 06:33N 51°53' E 004°25'0 0.0
2017-Mar-19 05:33N 51°53' E 004°25'0 0.0
2017-Mar-19 04:33N 51°53' E 004°25'0 0.0
2017-Mar-19 03:33N 51°53' E 004°25'0 0.0
2017-Mar-19 02:33N 51°53' E 004°25'0 0.3
2017-Mar-19 01:33N 51°53' E 004°25'8 8.5
2017-Mar-19 00:33N 51°56' E 004°12'1515.0
2017-Mar-18 23:34N 52°02' E 003°49'7618.9
2017-Mar-18 19:33N 52°43' E 002°05'10116.8
2017-Mar-18 13:33N 54°01' E 000°18'1717.3
2017-Mar-18 12:33N 54°14' W 000°02'1817.7
2017-Mar-18 11:33N 54°27' W 000°23'423 9.2
2017-Mar-16 13:33N 57°50' E 010°43'1817.8
2017-Mar-16 12:33N 57°38' E 011°08'1717.3
2017-Mar-16 11:33N 57°25' E 011°29'1818.0
2017-Mar-16 10:33N 57°08' E 011°40'12215.3
2017-Mar-16 02:33N 55°07' E 011°03'1313.4
2017-Mar-16 01:33N 54°55' E 010°55'1413.6
2017-Mar-16 00:34N 54°41' E 010°55'1515.3
2017-Mar-15 23:34N 54°34' E 011°19'1615.4
2017-Mar-15 22:32N 54°28' E 011°44'1515.9
2017-Mar-15 21:33N 54°27' E 012°10'1716.2
2017-Mar-15 20:29N 54°41' E 012°27'3416.8
2017-Mar-15 18:29N 54°55' E 013°20'1617.2
2017-Mar-15 17:32N 55°00' E 013°47'1716.8
2017-Mar-15 16:32N 55°09' E 014°12'  
Track history (hours):
 
Tides and Currents Weather Stations Pressure Air Temp Water Temp Dewpoint Dewpoint Depression Visibility Wind Speed Wind Dir Waves Ship Positions

Containerships 6

Last reported at 2017-Mar-25 16:18 UTC. Time now 2017-Mar-26 18:53 UTC.
Position N 59°20' E 022°10'.

Length 155 m; beam 21.8 m; draft 8.9 m.

Type: Ship (hazmat cat A). MMSI: 211315096.

Date/timePositionNaut miles runAvg speedWind from/ knotsBaromVisibWave heightAir tempDewpointWater temp
2017-Mar-25 16:18N 59°20' E 022°10'3517.8
2017-Mar-25 14:19N 59°36' E 023°13'1518.2
2017-Mar-25 13:30N 59°41' E 023°41'80 2.4
2017-Mar-24 03:31N 60°00' E 026°15'1616.6
2017-Mar-24 02:33N 60°01' E 026°47'1815.9
2017-Mar-24 01:26N 60°05' E 027°21'1516.3
2017-Mar-24 00:30N 60°12' E 027°49'1816.7
2017-Mar-23 23:25N 60°05' E 028°23'1416.5
2017-Mar-23 22:33N 60°03' E 028°51'1312.4
2017-Mar-23 21:33N 60°02' E 029°16'1 0.1
2017-Mar-22 19:32N 60°01' E 029°19'1616.4
2017-Mar-22 18:33N 60°02' E 028°47'1716.6
2017-Mar-22 17:33N 60°07' E 028°15'1716.5
2017-Mar-22 16:33N 60°10' E 027°42'1716.4
2017-Mar-22 15:33N 60°01' E 027°14'1514.7
2017-Mar-22 14:33N 59°60' E 026°45'39613.0
2017-Mar-21 08:08N 56°04' E 016°45'1118.5
2017-Mar-21 07:33N 55°58' E 016°28'1818.4
2017-Mar-21 06:33N 55°49' E 015°60'1818.4
2017-Mar-21 05:34N 55°40' E 015°32'1918.9
2017-Mar-21 04:34N 55°31' E 015°02'1918.6
2017-Mar-21 03:33N 55°20' E 014°35'1717.3
2017-Mar-21 02:33N 55°10' E 014°11'1918.6
2017-Mar-21 01:33N 55°11' E 013°39'2018.7
2017-Mar-21 00:29N 55°13' E 013°04'1617.2
2017-Mar-20 23:34N 55°19' E 012°38'1514.8
2017-Mar-20 22:33N 55°34' E 012°42'1111.4
2017-Mar-20 21:33N 55°45' E 012°41'1716.7
2017-Mar-20 20:33N 56°02' E 012°39'1716.9
2017-Mar-20 19:33N 56°13' E 012°16'7117.5
2017-Mar-20 15:28N 57°19' E 011°28'1617.1
2017-Mar-20 14:33N 57°32' E 011°13'1817.9
2017-Mar-20 13:33N 57°45' E 010°49'2017.9
2017-Mar-20 12:25N 57°43' E 010°10'15218.6
2017-Mar-20 04:16N 55°53' E 007°01'1819.0
2017-Mar-20 03:19N 55°37' E 006°44'14819.0
2017-Mar-19 19:32N 53°27' E 004°43'1919.8
2017-Mar-19 18:33N 53°09' E 004°29'1919.5
2017-Mar-19 17:33N 52°52' E 004°15'2018.9
2017-Mar-19 16:31N 52°35' E 003°59'1818.2
2017-Mar-19 15:33N 52°17' E 003°52'1818.0
2017-Mar-19 14:33N 52°01' E 004°01'1313.4
2017-Mar-19 13:33N 51°54' E 004°20'3 3.3
2017-Mar-19 12:34N 51°53' E 004°25'0 0.0
2017-Mar-19 10:33N 51°53' E 004°25'0 0.0
2017-Mar-19 09:34N 51°53' E 004°25'0 0.0
2017-Mar-19 08:33N 51°53' E 004°25'0 0.0
2017-Mar-19 07:33N 51°53' E 004°25'0 0.0
2017-Mar-19 06:33N 51°53' E 004°25'0 0.0
2017-Mar-19 05:33N 51°53' E 004°25'0 0.0
2017-Mar-19 04:33N 51°53' E 004°25'0 0.0
2017-Mar-19 03:33N 51°53' E 004°25'0 0.0
2017-Mar-19 02:33N 51°53' E 004°25'0 0.3
2017-Mar-19 01:33N 51°53' E 004°25'8 8.5
2017-Mar-19 00:33N 51°56' E 004°12'1515.0
2017-Mar-18 23:34N 52°02' E 003°49'7618.9
2017-Mar-18 19:33N 52°43' E 002°05'10116.8
2017-Mar-18 13:33N 54°01' E 000°18'1717.3
2017-Mar-18 12:33N 54°14' W 000°02'1817.7
2017-Mar-18 11:33N 54°27' W 000°23'423 9.2
2017-Mar-16 13:33N 57°50' E 010°43'1817.8
2017-Mar-16 12:33N 57°38' E 011°08'1717.3
2017-Mar-16 11:33N 57°25' E 011°29'1818.0
2017-Mar-16 10:33N 57°08' E 011°40'12215.3
2017-Mar-16 02:33N 55°07' E 011°03'1313.4
2017-Mar-16 01:33N 54°55' E 010°55'1413.6
2017-Mar-16 00:34N 54°41' E 010°55'1515.3
2017-Mar-15 23:34N 54°34' E 011°19'1615.4
2017-Mar-15 22:32N 54°28' E 011°44'1515.9
2017-Mar-15 21:33N 54°27' E 012°10'1716.2
2017-Mar-15 20:29N 54°41' E 012°27'3416.8
2017-Mar-15 18:29N 54°55' E 013°20'1617.2
2017-Mar-15 17:32N 55°00' E 013°47'1716.8
2017-Mar-15 16:32N 55°09' E 014°12'  

Dump ship's entire track history